Time;durP1;ratioP1;P1;durP2;ratioP2;P2;SDS_P1;SDS_P2;PMS_P1;PMS_P2;Temp;Humidity;BMP_temperature;BMP_pressure;BME280_temperature;BME280_humidity;BME280_pressure;Samples;Min_cycle;Max_cycle;Signal;HPM_P1;HPM_P2
2023/08/09 00:02:03;;;;;;;2.92;1.80;;;18.40;96.60;;;;;;6300535;28;20133;-78
2023/08/09 00:05:05;;;;;;;2.97;2.55;;;18.30;96.70;;;;;;6317331;28;20043;-79
2023/08/09 00:08:08;;;;;;;5.03;1.75;;;18.30;96.90;;;;;;6314568;28;20052;-79
2023/08/09 00:11:09;;;;;;;3.20;2.15;;;18.40;97.00;;;;;;6320546;28;20079;-78
2023/08/09 00:14:13;;;;;;;4.53;2.28;;;18.30;97.10;;;;;;6324582;28;20112;-79
2023/08/09 00:17:15;;;;;;;3.40;2.28;;;18.30;97.30;;;;;;6325092;28;20414;-79
2023/08/09 00:20:16;;;;;;;4.00;2.33;;;18.20;97.50;;;;;;6324850;28;20388;-79
2023/08/09 00:23:21;;;;;;;3.00;2.05;;;18.20;97.60;;;;;;6308902;28;20032;-78
2023/08/09 00:26:23;;;;;;;2.60;1.90;;;18.20;97.70;;;;;;6300385;28;20044;-79
2023/08/09 00:29:27;;;;;;;5.00;2.45;;;18.20;97.80;;;;;;6299316;28;20071;-78
2023/08/09 00:32:29;;;;;;;2.15;1.98;;;18.20;97.90;;;;;;6299076;28;20120;-79
2023/08/09 00:35:31;;;;;;;2.35;2.10;;;18.20;98.00;;;;;;6300019;28;20075;-78
2023/08/09 00:38:33;;;;;;;2.50;1.80;;;18.20;98.10;;;;;;6298949;28;20052;-79
2023/08/09 00:41:35;;;;;;;3.83;1.75;;;18.20;98.20;;;;;;6300241;28;20052;-80
2023/08/09 00:44:38;;;;;;;7.05;2.60;;;18.10;98.20;;;;;;6299925;28;20095;-79
2023/08/09 00:47:40;;;;;;;2.20;1.92;;;18.10;98.30;;;;;;6305170;28;20097;-79
2023/08/09 00:50:42;;;;;;;3.13;2.15;;;18.10;98.30;;;;;;6338167;28;20047;-79
2023/08/09 00:53:44;;;;;;;7.32;1.77;;;18.10;98.40;;;;;;6331330;28;20119;-79
2023/08/09 00:56:46;;;;;;;7.10;2.42;;;18.10;98.50;;;;;;6323324;28;20082;-78
2023/08/09 00:59:50;;;;;;;2.85;1.98;;;18.10;98.50;;;;;;6298973;28;20052;-79
2023/08/09 01:02:52;;;;;;;2.78;1.58;;;18.10;98.60;;;;;;6300110;28;20532;-78
2023/08/09 01:06:03;;;;;;;3.28;2.00;;;18.10;98.60;;;;;;6299033;28;20045;-79
2023/08/09 01:09:14;;;;;;;2.58;1.85;;;18.10;98.60;;;;;;6298604;28;20431;-79
2023/08/09 01:12:20;;;;;;;2.83;2.28;;;18.10;98.90;;;;;;6299034;28;20129;-79
2023/08/09 01:15:24;;;;;;;3.40;2.42;;;18.10;98.60;;;;;;6300540;28;20053;-80
2023/08/09 01:18:27;;;;;;;1.52;1.42;;;18.10;98.60;;;;;;6307684;28;20048;-79
2023/08/09 01:21:31;;;;;;;2.35;2.15;;;18.20;98.60;;;;;;6309135;28;20044;-80
2023/08/09 01:24:34;;;;;;;4.93;2.00;;;18.20;98.50;;;;;;6331417;28;20044;-80
2023/08/09 01:27:37;;;;;;;4.20;1.92;;;18.20;98.40;;;;;;6330392;28;20114;-80
2023/08/09 01:30:39;;;;;;;4.90;2.22;;;18.20;98.40;;;;;;6335964;28;20052;-79
2023/08/09 01:33:40;;;;;;;2.63;1.90;;;18.20;98.40;;;;;;6320349;28;20036;-79
2023/08/09 01:36:43;;;;;;;3.20;1.90;;;18.30;98.40;;;;;;6309305;28;20364;-78
2023/08/09 01:39:50;;;;;;;2.28;1.88;;;18.20;98.40;;;;;;6331912;28;20177;-80
2023/08/09 01:42:52;;;;;;;1.80;1.70;;;18.20;98.40;;;;;;6325046;28;20048;-80
2023/08/09 01:45:54;;;;;;;3.10;1.80;;;18.30;98.50;;;;;;6329683;28;20059;-78
2023/08/09 01:49:09;;;;;;;2.92;1.90;;;18.30;98.50;;;;;;6329686;28;20044;-80
2023/08/09 01:52:11;;;;;;;6.80;2.30;;;18.20;98.60;;;;;;6328471;28;20052;-80
2023/08/09 01:55:17;;;;;;;2.50;2.28;;;18.30;98.70;;;;;;6303484;28;20500;-79
2023/08/09 01:58:19;;;;;;;3.15;1.50;;;18.30;98.80;;;;;;6315406;28;20044;-80
2023/08/09 02:01:21;;;;;;;2.60;1.73;;;18.30;98.90;;;;;;6332187;28;20384;-79
2023/08/09 02:04:24;;;;;;;2.50;2.20;;;18.20;99.00;;;;;;6318191;28;20047;-79
2023/08/09 02:07:26;;;;;;;4.22;1.60;;;18.20;99.20;;;;;;6331517;28;20044;-79
2023/08/09 02:10:29;;;;;;;4.40;2.30;;;18.20;99.20;;;;;;6305015;28;20048;-79
2023/08/09 02:13:30;;;;;;;2.08;1.88;;;18.20;99.30;;;;;;6308409;28;20051;-79
2023/08/09 02:16:32;;;;;;;2.30;1.90;;;18.20;99.40;;;;;;6303946;28;20055;-78
2023/08/09 02:19:34;;;;;;;3.75;1.65;;;18.10;99.50;;;;;;6307693;28;20040;-80
2023/08/09 02:22:37;;;;;;;4.65;2.13;;;18.10;99.60;;;;;;6310059;28;20048;-78
2023/08/09 02:25:40;;;;;;;2.55;1.98;;;18.10;99.70;;;;;;6333444;28;20044;-79
2023/08/09 02:28:42;;;;;;;2.97;2.55;;;18.00;99.80;;;;;;6316888;28;20048;-80
2023/08/09 02:31:44;;;;;;;2.92;2.05;;;18.00;99.90;;;;;;6303716;28;20048;-78
2023/08/09 02:34:46;;;;;;;3.35;2.25;;;17.90;99.90;;;;;;6306734;28;20491;-79
2023/08/09 02:37:47;;;;;;;4.55;2.40;;;17.90;99.90;;;;;;6304670;28;20051;-80
2023/08/09 02:40:51;;;;;;;3.63;1.65;;;17.90;99.90;;;;;;6308100;28;20528;-80
2023/08/09 02:43:53;;;;;;;3.67;2.85;;;17.90;99.90;;;;;;6320766;28;20044;-79
2023/08/09 02:46:55;;;;;;;2.65;2.05;;;17.90;99.90;;;;;;6333234;28;20055;-79
2023/08/09 02:49:57;;;;;;;6.20;2.40;;;17.90;99.90;;;;;;6311375;28;20058;-78
2023/08/09 02:53:01;;;;;;;4.28;2.22;;;17.90;99.90;;;;;;6310890;28;20040;-79
2023/08/09 02:56:05;;;;;;;5.03;2.65;;;17.90;99.90;;;;;;6332073;28;20079;-80
2023/08/09 02:59:06;;;;;;;2.65;1.60;;;17.90;99.90;;;;;;6314037;28;20048;-78
2023/08/09 03:02:08;;;;;;;3.60;2.03;;;17.90;99.90;;;;;;6302786;28;20049;-80
2023/08/09 03:05:10;;;;;;;4.60;2.15;;;17.80;99.90;;;;;;6302919;28;20048;-80
2023/08/09 03:08:12;;;;;;;2.33;2.08;;;17.90;99.90;;;;;;6301925;28;20460;-80
2023/08/09 03:11:15;;;;;;;4.30;1.77;;;17.90;99.90;;;;;;6301817;28;20047;-79
2023/08/09 03:14:17;;;;;;;3.85;2.50;;;17.90;99.90;;;;;;6316771;28;20048;-79
2023/08/09 03:17:19;;;;;;;2.75;1.85;;;17.90;99.90;;;;;;6332001;28;20441;-78
2023/08/09 03:20:21;;;;;;;3.08;2.08;;;18.00;99.90;;;;;;6333849;28;20391;-80
2023/08/09 03:23:22;;;;;;;2.30;1.75;;;18.00;99.90;;;;;;6336560;28;20047;-80
2023/08/09 03:26:26;;;;;;;9.77;2.15;;;18.00;99.90;;;;;;6336497;28;20063;-78
2023/08/09 03:29:28;;;;;;;4.35;2.33;;;18.00;99.80;;;;;;6310773;28;20426;-78
2023/08/09 03:32:30;;;;;;;2.67;1.75;;;18.10;99.60;;;;;;6310378;28;20068;-79
2023/08/09 03:35:32;;;;;;;6.93;2.45;;;18.10;99.50;;;;;;6312612;28;20048;-80
2023/08/09 03:38:33;;;;;;;3.45;2.55;;;18.20;99.40;;;;;;6314354;28;20055;-80
2023/08/09 03:41:36;;;;;;;3.78;2.00;;;18.20;99.20;;;;;;6314984;28;20041;-80
2023/08/09 03:44:38;;;;;;;2.08;1.60;;;18.30;99.10;;;;;;6312495;28;20050;-79
2023/08/09 03:47:40;;;;;;;2.50;1.75;;;18.40;98.90;;;;;;6312838;28;20051;-80
2023/08/09 03:50:41;;;;;;;3.25;2.15;;;18.40;98.80;;;;;;6338492;28;20450;-78
2023/08/09 03:53:43;;;;;;;2.25;1.92;;;18.40;98.70;;;;;;6335745;28;20047;-79
2023/08/09 03:56:46;;;;;;;5.15;1.85;;;18.40;98.70;;;;;;6332957;28;20593;-80
2023/08/09 03:59:49;;;;;;;4.72;1.90;;;18.40;98.60;;;;;;6320332;28;20518;-78
2023/08/09 04:02:51;;;;;;;4.28;1.85;;;18.50;98.60;;;;;;6313584;28;20052;-78
2023/08/09 04:05:52;;;;;;;2.40;1.73;;;18.40;98.50;;;;;;6339911;28;20055;-79
2023/08/09 04:08:54;;;;;;;2.53;1.67;;;18.40;98.40;;;;;;6334110;28;20051;-78
2023/08/09 04:11:59;;;;;;;2.97;1.80;;;18.40;98.40;;;;;;6317494;28;20059;-80
2023/08/09 04:15:00;;;;;;;6.75;1.80;;;18.50;98.30;;;;;;6334940;28;20079;-82
2023/08/09 04:18:02;;;;;;;7.72;2.03;;;18.50;98.30;;;;;;6341771;28;20166;-80
2023/08/09 04:21:04;;;;;;;2.22;1.70;;;18.50;98.20;;;;;;6342018;28;20119;-82
2023/08/09 04:24:08;;;;;;;3.60;1.73;;;18.50;98.20;;;;;;6342407;28;20435;-82
2023/08/09 04:27:11;;;;;;;3.42;1.70;;;18.40;98.20;;;;;;6342184;28;20107;-80
2023/08/09 04:30:14;;;;;;;1.55;1.30;;;18.40;98.20;;;;;;6342510;28;20058;-82
2023/08/09 04:33:16;;;;;;;1.70;1.27;;;18.40;98.40;;;;;;6341325;28;20096;-82
2023/08/09 04:36:18;;;;;;;3.38;1.58;;;18.40;98.40;;;;;;6317080;28;20217;-82
2023/08/09 04:39:20;;;;;;;7.18;1.95;;;18.50;98.30;;;;;;6316971;28;20048;-82
2023/08/09 04:42:23;;;;;;;6.78;2.25;;;18.40;98.30;;;;;;6317534;28;20116;-80
2023/08/09 04:48:59;;;;;;;3.47;1.92;;;18.50;98.20;;;;;;6305732;28;20497;-83
2023/08/09 04:52:01;;;;;;;3.92;2.55;;;18.50;98.20;;;;;;6342643;28;20112;-79
2023/08/09 04:55:04;;;;;;;6.05;3.25;;;18.50;98.10;;;;;;6342274;28;20104;-80
2023/08/09 04:58:07;;;;;;;4.78;1.95;;;18.60;98.10;;;;;;6341154;28;20048;-80
2023/08/09 05:01:09;;;;;;;2.65;1.50;;;18.60;98.00;;;;;;6341419;28;20048;-79
2023/08/09 05:04:10;;;;;;;4.50;2.00;;;18.60;98.00;;;;;;6333735;28;20110;-80
2023/08/09 05:07:12;;;;;;;2.30;1.40;;;18.60;97.90;;;;;;6316256;28;20054;-81
2023/08/09 05:10:14;;;;;;;3.42;1.20;;;18.60;97.90;;;;;;6331262;28;20056;-79
2023/08/09 05:13:18;;;;;;;5.80;1.98;;;18.70;97.90;;;;;;6340948;28;20052;-81
2023/08/09 05:16:24;;;;;;;5.75;1.77;;;18.70;97.80;;;;;;6340548;28;20074;-78
2023/08/09 05:19:26;;;;;;;4.43;2.38;;;18.70;97.80;;;;;;6334997;28;20064;-78
2023/08/09 05:22:27;;;;;;;2.25;1.90;;;18.70;97.80;;;;;;6339632;28;20486;-81
2023/08/09 05:25:29;;;;;;;2.72;2.28;;;18.70;97.70;;;;;;6335875;28;20051;-79
2023/08/09 05:28:32;;;;;;;3.08;1.63;;;18.70;97.70;;;;;;6315770;28;20044;-83
2023/08/09 05:31:34;;;;;;;4.50;2.58;;;18.80;97.70;;;;;;6339785;28;20055;-79
2023/08/09 05:34:36;;;;;;;5.47;2.42;;;18.90;97.60;;;;;;6303806;28;20058;-82
2023/08/09 05:37:37;;;;;;;4.53;2.00;;;19.00;97.70;;;;;;6318741;28;20052;-81
2023/08/09 05:40:39;;;;;;;3.95;1.80;;;19.00;97.60;;;;;;6318401;28;20071;-82
2023/08/09 05:43:42;;;;;;;2.10;1.90;;;19.00;97.60;;;;;;6315840;28;20033;-81
2023/08/09 05:46:44;;;;;;;2.38;2.08;;;19.00;97.60;;;;;;6328596;28;20352;-80
2023/08/09 05:49:47;;;;;;;3.63;1.77;;;19.00;97.60;;;;;;6336331;28;20046;-80
2023/08/09 05:52:49;;;;;;;2.67;1.55;;;19.00;97.60;;;;;;6322545;28;20044;-80
2023/08/09 05:55:51;;;;;;;2.70;1.63;;;19.00;97.70;;;;;;6323040;28;20052;-79
2023/08/09 05:58:54;;;;;;;5.63;1.70;;;19.10;97.70;;;;;;6318893;28;20048;-79
2023/08/09 06:01:56;;;;;;;3.03;2.30;;;19.10;97.80;;;;;;6314196;28;20055;-81
2023/08/09 06:04:57;;;;;;;6.80;2.70;;;19.10;97.90;;;;;;6309329;28;20051;-81
2023/08/09 06:07:59;;;;;;;5.85;4.70;;;19.20;98.00;;;;;;6327872;28;20539;-79
2023/08/09 06:11:02;;;;;;;4.22;1.98;;;19.30;97.90;;;;;;6333086;28;20070;-80
2023/08/09 06:14:05;;;;;;;5.13;1.98;;;19.30;97.80;;;;;;6330490;28;20048;-82
2023/08/09 06:17:07;;;;;;;4.32;2.28;;;19.50;97.90;;;;;;6309816;28;20075;-80
2023/08/09 06:20:12;;;;;;;1.73;1.63;;;19.50;97.70;;;;;;6304388;28;20048;-77
2023/08/09 06:23:14;;;;;;;2.40;2.17;;;19.40;97.70;;;;;;6299864;28;20407;-78
2023/08/09 06:26:16;;;;;;;1.75;1.55;;;19.30;97.80;;;;;;6298963;28;20123;-78
2023/08/09 06:29:19;;;;;;;2.63;1.95;;;19.20;97.90;;;;;;6318402;28;20040;-79
2023/08/09 06:32:21;;;;;;;4.28;1.95;;;19.20;98.10;;;;;;6300096;28;20159;-80
2023/08/09 06:35:23;;;;;;;2.60;2.22;;;19.20;98.10;;;;;;6299184;28;20075;-82
2023/08/09 06:38:25;;;;;;;3.53;1.92;;;19.10;98.30;;;;;;6302141;28;20059;-82
2023/08/09 06:41:26;;;;;;;4.95;1.67;;;19.10;98.40;;;;;;6300325;28;20056;-82
2023/08/09 06:44:30;;;;;;;6.05;2.03;;;19.00;98.50;;;;;;6303610;28;20051;-79
2023/08/09 06:47:31;;;;;;;3.28;2.38;;;19.00;98.60;;;;;;6308421;28;20054;-79
2023/08/09 06:50:33;;;;;;;5.43;2.38;;;19.10;98.70;;;;;;6329476;28;20070;-80
2023/08/09 06:53:35;;;;;;;4.53;2.10;;;19.10;98.80;;;;;;6325845;28;20047;-81
2023/08/09 06:56:36;;;;;;;2.22;1.67;;;19.20;98.80;;;;;;6304740;28;20048;-78
2023/08/09 06:59:39;;;;;;;2.67;1.85;;;19.30;99.00;;;;;;6300981;28;20050;-81
2023/08/09 07:02:41;;;;;;;4.22;2.38;;;19.30;98.60;;;;;;6300924;28;20064;-80
2023/08/09 07:05:43;;;;;;;2.72;2.38;;;19.30;98.50;;;;;;6300974;28;20040;-81
2023/08/09 07:08:45;;;;;;;3.25;1.77;;;19.30;98.60;;;;;;6302491;28;20040;-80
2023/08/09 07:11:47;;;;;;;2.10;1.83;;;19.30;98.60;;;;;;6300936;28;20491;-83
2023/08/09 07:14:50;;;;;;;2.33;1.70;;;19.30;98.70;;;;;;6306697;28;20051;-81
2023/08/09 07:17:52;;;;;;;2.60;2.00;;;19.30;98.80;;;;;;6307694;28;20123;-82
2023/08/09 07:20:54;;;;;;;2.25;1.63;;;19.30;98.90;;;;;;6325345;28;20124;-83
2023/08/09 07:23:56;;;;;;;5.43;2.97;;;19.20;98.90;;;;;;6325981;28;20415;-80
2023/08/09 07:26:57;;;;;;;2.03;1.52;;;19.20;99.10;;;;;;6305237;28;20049;-81
2023/08/09 07:30:00;;;;;;;3.20;2.25;;;19.20;99.20;;;;;;6320187;28;20055;-82
2023/08/09 07:33:03;;;;;;;2.45;1.83;;;19.20;99.30;;;;;;6301054;28;20055;-81
2023/08/09 07:36:05;;;;;;;2.28;1.80;;;19.30;99.40;;;;;;6301335;28;20040;-82
2023/08/09 07:39:09;;;;;;;2.35;2.15;;;19.40;99.30;;;;;;6304035;28;20589;-82
2023/08/09 07:42:11;;;;;;;2.97;2.28;;;19.50;99.20;;;;;;6323785;28;20052;-81
2023/08/09 07:45:14;;;;;;;3.28;2.05;;;19.40;99.20;;;;;;6321337;28;20051;-80
2023/08/09 07:48:16;;;;;;;2.05;1.67;;;19.40;99.40;;;;;;6307737;28;20421;-82
2023/08/09 07:51:17;;;;;;;3.97;1.98;;;19.40;99.40;;;;;;6316641;28;20043;-83
2023/08/09 07:54:19;;;;;;;3.47;1.73;;;19.40;99.40;;;;;;6319647;28;20047;-81
2023/08/09 07:57:21;;;;;;;8.38;2.63;;;19.40;99.30;;;;;;6326732;28;20396;-80
2023/08/09 08:00:24;;;;;;;3.10;1.77;;;19.40;99.40;;;;;;6324976;28;20051;-80
2023/08/09 08:03:26;;;;;;;3.20;2.10;;;19.40;99.40;;;;;;6333921;28;20046;-80
2023/08/09 08:06:28;;;;;;;1.70;1.52;;;19.40;99.50;;;;;;6332014;28;20048;-82
2023/08/09 08:09:32;;;;;;;5.53;2.15;;;19.50;99.50;;;;;;6333657;28;20066;-80
2023/08/09 08:12:34;;;;;;;6.47;2.28;;;19.50;99.50;;;;;;6334479;28;20048;-79
2023/08/09 08:15:37;;;;;;;8.40;1.67;;;19.60;99.50;;;;;;6333673;28;20040;-80
2023/08/09 08:18:39;;;;;;;4.15;2.15;;;19.70;99.50;;;;;;6322920;28;20051;-82
2023/08/09 08:21:41;;;;;;;5.15;1.95;;;19.80;99.40;;;;;;6330218;28;20051;-84
2023/08/09 08:24:43;;;;;;;4.03;1.52;;;20.10;99.30;;;;;;6332053;28;20071;-79
2023/08/09 08:27:46;;;;;;;2.28;1.60;;;20.30;99.00;;;;;;6318426;28;20130;-83
2023/08/09 08:30:49;;;;;;;2.65;2.03;;;20.40;98.80;;;;;;6328543;28;20134;-82
2023/08/09 08:33:51;;;;;;;1.85;1.50;;;20.40;98.60;;;;;;6327167;28;20048;-81
2023/08/09 08:36:54;;;;;;;1.92;1.50;;;20.50;98.60;;;;;;6326224;28;20040;-80
2023/08/09 08:39:56;;;;;;;5.60;1.80;;;20.60;98.50;;;;;;6326316;28;20418;-80
2023/08/09 08:42:59;;;;;;;7.22;1.77;;;20.80;98.20;;;;;;6305745;28;20495;-82
2023/08/09 08:46:04;;;;;;;4.20;1.98;;;20.70;98.00;;;;;;6312774;28;20627;-82
2023/08/09 08:49:06;;;;;;;5.05;1.90;;;20.70;97.90;;;;;;6318121;28;20051;-80
2023/08/09 08:52:10;;;;;;;1.40;1.23;;;20.70;97.80;;;;;;6321364;28;20048;-79
2023/08/09 08:55:13;;;;;;;4.63;2.65;;;20.70;97.80;;;;;;6333105;28;20051;-80
2023/08/09 08:58:15;;;;;;;3.33;1.40;;;20.60;97.80;;;;;;6333211;28;20481;-80
2023/08/09 09:01:19;;;;;;;4.32;1.77;;;20.70;97.80;;;;;;6330500;28;20055;-80
2023/08/09 09:04:21;;;;;;;2.58;1.42;;;20.60;97.80;;;;;;6311887;28;20066;-78
2023/08/09 09:07:32;;;;;;;4.50;1.50;;;20.60;97.90;;;;;;6314941;28;20040;-84
2023/08/09 09:10:35;;;;;;;3.00;1.70;;;20.60;97.80;;;;;;6312815;28;20056;-80
2023/08/09 09:13:36;;;;;;;5.18;3.40;;;20.60;97.70;;;;;;6313367;28;20052;-80
2023/08/09 09:16:42;;;;;;;2.97;1.25;;;20.60;97.60;;;;;;6324508;28;20049;-82
2023/08/09 09:19:44;;;;;;;2.70;1.75;;;20.60;97.70;;;;;;6334593;28;20048;-82
2023/08/09 09:22:47;;;;;;;2.67;1.67;;;20.60;97.70;;;;;;6320319;28;20048;-81
2023/08/09 09:25:48;;;;;;;7.63;1.70;;;20.60;97.80;;;;;;6312634;28;20036;-82
2023/08/09 09:28:50;;;;;;;3.25;1.73;;;20.70;97.80;;;;;;6311130;28;20063;-80
2023/08/09 09:31:59;;;;;;;4.45;1.33;;;20.80;97.60;;;;;;6325313;28;20147;-80
2023/08/09 09:35:00;;;;;;;3.35;1.92;;;20.90;97.60;;;;;;6336789;28;20048;-79
2023/08/09 09:38:08;;;;;;;2.85;1.50;;;21.00;97.50;;;;;;6338740;28;20044;-80
2023/08/09 09:41:10;;;;;;;10.05;1.67;;;21.10;97.40;;;;;;6334701;28;20052;-78
2023/08/09 09:44:12;;;;;;;2.65;1.98;;;21.20;97.30;;;;;;6312979;28;20045;-79
2023/08/09 09:47:15;;;;;;;3.42;2.05;;;21.20;97.20;;;;;;6317170;28;20525;-79
2023/08/09 09:50:17;;;;;;;4.35;1.65;;;21.40;97.20;;;;;;6334782;28;20048;-80
2023/08/09 09:53:20;;;;;;;2.90;1.50;;;21.70;97.00;;;;;;6335030;28;20510;-80
2023/08/09 09:56:22;;;;;;;4.57;1.42;;;21.80;96.60;;;;;;6334374;28;20105;-79
2023/08/09 09:59:24;;;;;;;2.92;1.70;;;21.80;96.30;;;;;;6312819;28;20066;-79
2023/08/09 10:02:33;;;;;;;4.20;1.60;;;21.70;96.40;;;;;;6313138;28;20048;-81
2023/08/09 10:05:38;;;;;;;2.17;1.40;;;21.90;96.50;;;;;;6308959;28;20091;-80
2023/08/09 10:08:39;;;;;;;7.70;1.67;;;22.10;96.10;;;;;;6332899;28;20054;-81
2023/08/09 10:11:44;;;;;;;2.92;1.30;;;22.30;95.80;;;;;;6336408;28;20051;-81
2023/08/09 10:14:46;;;;;;;2.50;1.60;;;22.40;95.40;;;;;;6339174;28;20192;-80
2023/08/09 10:17:51;;;;;;;6.72;1.88;;;22.40;95.20;;;;;;6321755;28;20044;-79
2023/08/09 10:20:56;;;;;;;2.83;1.73;;;22.50;95.10;;;;;;6306156;28;20063;-80
2023/08/09 10:24:07;;;;;;;2.45;2.17;;;22.90;94.90;;;;;;6335138;28;20097;-81
2023/08/09 10:27:10;;;;;;;4.32;1.90;;;23.10;94.40;;;;;;6332448;28;20149;-81
2023/08/09 10:30:14;;;;;;;7.05;2.08;;;23.40;94.00;;;;;;6330724;28;20531;-81
2023/08/09 10:33:19;;;;;;;2.97;1.58;;;23.60;93.70;;;;;;6324698;28;20127;-80
2023/08/09 10:36:32;;;;;;;2.83;1.30;;;23.80;93.30;;;;;;6324381;28;20044;-82
2023/08/09 10:39:35;;;;;;;2.20;1.40;;;23.80;92.90;;;;;;6325221;28;20055;-83
2023/08/09 10:42:37;;;;;;;2.33;1.20;;;23.80;92.70;;;;;;6325079;28;20051;-81
2023/08/09 10:45:39;;;;;;;4.13;1.65;;;24.00;92.60;;;;;;6320678;28;20064;-81
2023/08/09 10:48:50;;;;;;;5.15;2.05;;;23.80;92.10;;;;;;6311970;28;20503;-81
2023/08/09 10:51:51;;;;;;;3.97;2.10;;;23.60;92.30;;;;;;6304137;28;20051;-80
2023/08/09 10:55:26;;;;;;;2.85;1.80;;;23.30;92.40;;;;;;6304474;28;20048;-81
2023/08/09 10:58:29;;;;;;;6.95;2.05;;;23.10;92.60;;;;;;6301676;28;20068;-81
2023/08/09 11:01:32;;;;;;;12.25;3.30;;;23.00;92.90;;;;;;6304480;28;20056;-83
2023/08/09 11:04:35;;;;;;;1.70;1.50;;;23.10;92.90;;;;;;6302896;28;20051;-83
2023/08/09 11:07:37;;;;;;;2.33;1.80;;;23.10;93.10;;;;;;6299258;28;20055;-81
2023/08/09 11:10:40;;;;;;;4.18;1.88;;;23.10;92.60;;;;;;6301542;28;20049;-80
2023/08/09 11:13:41;;;;;;;2.25;1.40;;;23.10;92.60;;;;;;6321858;28;20056;-81
2023/08/09 11:16:44;;;;;;;2.13;1.70;;;23.10;92.60;;;;;;6319274;28;20043;-83
2023/08/09 11:19:47;;;;;;;4.45;2.13;;;23.10;92.50;;;;;;6326573;28;20085;-81
2023/08/09 11:22:54;;;;;;;2.50;1.75;;;23.20;92.40;;;;;;6328161;28;20631;-81
2023/08/09 11:25:55;;;;;;;3.55;1.52;;;23.20;92.00;;;;;;6327647;28;20059;-82
2023/08/09 11:28:57;;;;;;;3.50;1.55;;;23.50;91.90;;;;;;6322663;28;20404;-81
2023/08/09 11:31:59;;;;;;;5.38;1.90;;;23.60;91.30;;;;;;6320553;28;20044;-82
2023/08/09 11:35:02;;;;;;;1.77;1.27;;;23.80;91.20;;;;;;6299156;28;20044;-81
2023/08/09 11:38:09;;;;;;;4.07;1.83;;;24.00;90.90;;;;;;6304361;28;20044;-82
2023/08/09 11:41:16;;;;;;;3.35;1.83;;;24.00;90.80;;;;;;6313675;28;20048;-82
2023/08/09 11:44:22;;;;;;;3.42;2.05;;;23.80;90.40;;;;;;6328753;28;20044;-82
2023/08/09 11:47:26;;;;;;;4.07;1.85;;;23.60;90.70;;;;;;6312539;28;20062;-79
2023/08/09 11:50:29;;;;;;;2.65;1.85;;;23.40;91.20;;;;;;6312688;28;20079;-82
2023/08/09 11:53:32;;;;;;;4.40;1.77;;;23.40;91.50;;;;;;6317209;28;20055;-81
2023/08/09 11:56:35;;;;;;;4.25;2.42;;;23.20;91.60;;;;;;6317010;28;20517;-80
2023/08/09 11:59:40;;;;;;;4.07;1.60;;;23.10;91.70;;;;;;6306755;28;20451;-81
2023/08/09 12:02:42;;;;;;;2.42;1.63;;;23.10;91.50;;;;;;6306516;28;20045;-82
2023/08/09 12:05:45;;;;;;;2.35;1.40;;;23.00;91.50;;;;;;6311184;28;20415;-80
2023/08/09 12:08:46;;;;;;;3.70;1.70;;;23.10;91.70;;;;;;6322402;28;20070;-82
2023/08/09 12:11:49;;;;;;;5.57;2.72;;;23.30;91.30;;;;;;6328762;28;20506;-81
2023/08/09 12:14:53;;;;;;;4.55;1.63;;;23.40;90.90;;;;;;6328268;28;20059;-82
2023/08/09 12:17:54;;;;;;;4.07;1.50;;;23.60;90.70;;;;;;6306168;28;20059;-82
2023/08/09 12:20:57;;;;;;;2.92;1.38;;;23.80;90.70;;;;;;6303044;28;20183;-82
2023/08/09 12:23:59;;;;;;;6.13;1.85;;;24.30;89.70;;;;;;6304036;28;20055;-82
2023/08/09 12:27:02;;;;;;;4.22;1.60;;;24.40;89.20;;;;;;6304968;28;20036;-82
2023/08/09 12:30:05;;;;;;;2.35;1.52;;;24.70;88.90;;;;;;6304682;28;20059;-81
2023/08/09 12:33:09;;;;;;;1.90;1.20;;;24.70;86.80;;;;;;6313803;28;20051;-82
2023/08/09 12:36:12;;;;;;;1.35;0.82;;;24.80;86.70;;;;;;6328123;28;20052;-82
2023/08/09 12:39:14;;;;;;;1.45;1.00;;;24.90;86.00;;;;;;6327708;28;20040;-81
2023/08/09 12:42:16;;;;;;;2.15;0.85;;;25.20;85.30;;;;;;6327801;28;20055;-80
2023/08/09 12:45:18;;;;;;;1.63;0.90;;;25.30;83.20;;;;;;6325432;28;20040;-82
2023/08/09 12:48:20;;;;;;;2.83;0.98;;;25.50;83.00;;;;;;6301614;28;20048;-80
2023/08/09 12:51:23;;;;;;;1.23;1.00;;;25.80;82.20;;;;;;6301705;28;20467;-80
2023/08/09 12:54:24;;;;;;;1.98;0.80;;;26.20;81.60;;;;;;6303198;28;20141;-81
2023/08/09 12:57:26;;;;;;;4.88;1.60;;;26.40;80.50;;;;;;6302026;28;20222;-80
2023/08/09 13:00:28;;;;;;;1.15;1.05;;;26.60;80.50;;;;;;6302011;28;20046;-80
2023/08/09 13:03:30;;;;;;;5.38;1.35;;;26.40;79.70;;;;;;6315050;28;20046;-80
2023/08/09 13:06:33;;;;;;;5.15;1.15;;;26.60;79.70;;;;;;6327916;28;20044;-80
2023/08/09 13:09:36;;;;;;;1.15;1.05;;;26.60;78.60;;;;;;6327069;28;20181;-80
2023/08/09 13:12:37;;;;;;;6.78;2.28;;;26.50;79.10;;;;;;6331839;28;20077;-80
2023/08/09 13:15:39;;;;;;;4.30;1.25;;;26.70;79.10;;;;;;6329018;28;20040;-80
2023/08/09 13:18:41;;;;;;;3.38;1.13;;;27.00;78.60;;;;;;6309005;28;20052;-80
2023/08/09 13:21:44;;;;;;;3.70;1.30;;;27.00;77.70;;;;;;6323622;28;20418;-79
2023/08/09 13:24:46;;;;;;;2.78;1.45;;;26.90;76.80;;;;;;6339147;28;20044;-80
2023/08/09 13:27:47;;;;;;;2.08;1.30;;;26.70;77.40;;;;;;6324572;28;20044;-80
2023/08/09 13:30:49;;;;;;;2.70;1.00;;;26.60;77.80;;;;;;6308270;28;20127;-80
2023/08/09 13:33:51;;;;;;;1.83;1.52;;;26.60;78.00;;;;;;6313540;28;20048;-79
2023/08/09 13:36:54;;;;;;;4.22;0.95;;;26.60;78.30;;;;;;6330512;28;20044;-78
2023/08/09 13:39:55;;;;;;;3.00;1.40;;;26.70;78.50;;;;;;6331202;28;20047;-79
2023/08/09 13:42:57;;;;;;;1.15;1.00;;;26.90;78.60;;;;;;6306667;28;20074;-80
2023/08/09 13:45:59;;;;;;;2.90;1.27;;;27.00;77.90;;;;;;6306376;28;20045;-78
2023/08/09 13:49:01;;;;;;;4.82;1.88;;;27.10;77.70;;;;;;6330238;28;20052;-80
2023/08/09 13:52:05;;;;;;;3.03;1.70;;;27.10;76.80;;;;;;6334605;28;20044;-80
2023/08/09 13:55:08;;;;;;;2.17;1.17;;;27.40;77.00;;;;;;6331816;28;20058;-79
2023/08/09 13:58:10;;;;;;;2.60;1.55;;;27.60;76.70;;;;;;6307633;28;20080;-79
2023/08/09 14:01:11;;;;;;;2.88;1.35;;;27.70;76.50;;;;;;6305512;28;20119;-80
2023/08/09 14:04:14;;;;;;;1.52;1.17;;;27.90;76.00;;;;;;6301826;28;20044;-80
2023/08/09 14:07:17;;;;;;;3.33;1.00;;;28.30;75.80;;;;;;6322114;28;20170;-81
2023/08/09 14:10:19;;;;;;;2.40;1.23;;;28.60;74.10;;;;;;6323900;28;20517;-80
2023/08/09 14:13:21;;;;;;;8.80;1.67;;;28.40;74.00;;;;;;6325126;28;20060;-79
2023/08/09 14:16:23;;;;;;;1.40;0.63;;;28.20;73.00;;;;;;6324445;28;20127;-79
2023/08/09 14:19:25;;;;;;;3.97;1.48;;;28.00;73.10;;;;;;6320781;28;20044;-80
2023/08/09 14:22:28;;;;;;;3.28;1.10;;;28.20;73.00;;;;;;6324123;28;20517;-80
2023/08/09 14:25:30;;;;;;;4.88;1.13;;;28.50;73.00;;;;;;6319274;28;20036;-80
2023/08/09 14:28:32;;;;;;;2.30;1.13;;;28.50;72.70;;;;;;6316960;28;20040;-80
2023/08/09 14:31:33;;;;;;;1.27;1.08;;;28.80;72.30;;;;;;6318353;28;20050;-79
2023/08/09 14:34:35;;;;;;;7.63;1.52;;;28.80;71.60;;;;;;6321753;28;20054;-79
2023/08/09 14:37:39;;;;;;;2.50;0.82;;;28.80;71.10;;;;;;6324699;28;20525;-79
2023/08/09 14:40:41;;;;;;;2.15;1.20;;;28.80;70.70;;;;;;6316065;28;20040;-79
2023/08/09 14:43:43;;;;;;;1.05;0.95;;;28.30;70.80;;;;;;6320934;28;20502;-80
2023/08/09 14:46:45;;;;;;;3.90;1.20;;;27.90;71.30;;;;;;6317620;28;20055;-80
2023/08/09 14:49:46;;;;;;;1.40;1.00;;;27.30;72.00;;;;;;6321063;28;20040;-78
2023/08/09 14:52:49;;;;;;;2.10;1.77;;;27.00;73.20;;;;;;6320874;28;20048;-77
2023/08/09 14:55:51;;;;;;;1.33;1.10;;;26.90;73.60;;;;;;6319013;28;20040;-77
2023/08/09 14:58:53;;;;;;;1.70;1.23;;;26.80;73.40;;;;;;6317502;28;20059;-79
2023/08/09 15:01:55;;;;;;;1.17;1.08;;;26.70;73.20;;;;;;6312910;28;20135;-78
2023/08/09 15:04:57;;;;;;;1.33;1.00;;;26.40;73.40;;;;;;6304739;28;20055;-79
2023/08/09 15:08:00;;;;;;;1.30;1.08;;;26.80;73.80;;;;;;6318354;28;20044;-78
2023/08/09 15:11:02;;;;;;;1.90;0.80;;;26.90;72.90;;;;;;6316192;28;20044;-78
2023/08/09 15:14:04;;;;;;;1.60;1.50;;;27.10;72.50;;;;;;6329884;28;20051;-78
2023/08/09 15:17:06;;;;;;;1.30;0.82;;;27.10;72.20;;;;;;6323274;28;20044;-79
2023/08/09 15:20:11;;;;;;;1.27;0.90;;;27.30;71.60;;;;;;6307147;28;20052;-80
2023/08/09 15:23:14;;;;;;;0.93;0.80;;;27.30;71.00;;;;;;6325196;28;20587;-78
2023/08/09 15:26:15;;;;;;;2.08;1.10;;;26.90;71.80;;;;;;6311915;28;20063;-78
2023/08/09 15:29:17;;;;;;;1.52;0.90;;;26.90;72.50;;;;;;6306393;28;20041;-78
2023/08/09 15:32:19;;;;;;;1.45;1.13;;;27.10;72.80;;;;;;6326645;28;20048;-78
2023/08/09 15:35:22;;;;;;;0.70;0.70;;;27.40;71.90;;;;;;6321346;28;20042;-78
2023/08/09 15:38:25;;;;;;;1.48;1.00;;;27.70;71.60;;;;;;6325871;28;20055;-78
2023/08/09 15:41:27;;;;;;;2.92;1.02;;;27.80;70.70;;;;;;6325411;28;20041;-79
2023/08/09 15:44:28;;;;;;;2.58;1.02;;;27.70;70.50;;;;;;6318445;28;20047;-78
2023/08/09 15:47:30;;;;;;;3.10;0.85;;;27.50;71.10;;;;;;6327195;28;20036;-78
2023/08/09 15:50:32;;;;;;;0.68;0.68;;;27.60;71.40;;;;;;6328378;28;20079;-79
2023/08/09 15:53:35;;;;;;;1.25;1.15;;;27.50;71.40;;;;;;6326608;28;20047;-78
2023/08/09 15:56:37;;;;;;;2.35;0.85;;;27.60;72.00;;;;;;6327148;28;20039;-78